Time;durP1;ratioP1;P1;durP2;ratioP2;P2;SDS_P1;SDS_P2;PMS_P1;PMS_P2;Temp;Humidity;BMP_temperature;BMP_pressure;BME280_temperature;BME280_humidity;BME280_pressure;Samples;Min_cycle;Max_cycle;Signal;HPM_P1;HPM_P2
2021/06/22 00:01:04;;;;;;;10.10;3.75;;;15.70;99.90;;;;;;5039903;28;20022;-61
2021/06/22 00:03:30;;;;;;;9.52;4.38;;;15.50;99.90;;;;;;5040026;28;20026;-61
2021/06/22 00:05:56;;;;;;;10.88;4.03;;;15.40;99.90;;;;;;5039835;28;20482;-61
2021/06/22 00:08:22;;;;;;;8.88;4.85;;;15.70;99.90;;;;;;5040151;28;20386;-61
2021/06/22 00:10:48;;;;;;;13.70;4.35;;;15.60;99.90;;;;;;5039809;28;20061;-61
2021/06/22 00:13:15;;;;;;;13.50;4.28;;;15.20;99.90;;;;;;5040066;28;20494;-61
2021/06/22 00:15:41;;;;;;;13.80;5.30;;;15.50;99.90;;;;;;5039700;28;20454;-61
2021/06/22 00:18:06;;;;;;;14.30;4.82;;;15.60;99.90;;;;;;5039764;28;20039;-61
2021/06/22 00:20:33;;;;;;;9.85;5.05;;;15.30;99.90;;;;;;5039719;28;20033;-61
2021/06/22 00:22:59;;;;;;;12.32;4.47;;;15.30;99.90;;;;;;5039789;28;20017;-61
2021/06/22 00:25:25;;;;;;;8.68;4.63;;;15.10;99.90;;;;;;5039587;28;20025;-61
2021/06/22 00:27:52;;;;;;;11.73;4.25;;;15.20;99.90;;;;;;5039766;28;20018;-61
2021/06/22 00:30:20;;;;;;;8.77;5.00;;;15.40;99.90;;;;;;5039399;28;20046;-61
2021/06/22 00:32:46;;;;;;;20.17;5.13;;;15.20;99.90;;;;;;5039394;28;20061;-62
2021/06/22 00:35:13;;;;;;;15.32;4.82;;;15.30;99.90;;;;;;5040159;28;20013;-61
2021/06/22 00:37:44;;;;;;;14.00;5.07;;;15.30;99.90;;;;;;5039374;28;20029;-60
2021/06/22 00:40:12;;;;;;;13.88;5.43;;;15.30;99.90;;;;;;5039436;28;20026;-61
2021/06/22 00:42:40;;;;;;;9.55;5.00;;;15.30;99.90;;;;;;5039307;28;20025;-61
2021/06/22 00:45:07;;;;;;;11.68;4.70;;;14.80;99.90;;;;;;5038359;28;20021;-61
2021/06/22 00:47:33;;;;;;;15.27;5.72;;;15.20;99.90;;;;;;5039054;28;20026;-61
2021/06/22 00:49:59;;;;;;;17.00;5.72;;;14.80;99.90;;;;;;5039181;28;20511;-60
2021/06/22 00:52:28;;;;;;;11.50;5.13;;;15.10;99.90;;;;;;5039338;28;20061;-60
2021/06/22 00:54:55;;;;;;;15.65;5.30;;;15.10;99.90;;;;;;5039151;28;20026;-60
2021/06/22 00:57:21;;;;;;;19.05;5.43;;;15.20;99.90;;;;;;5039036;28;20389;-61
2021/06/22 00:59:47;;;;;;;10.35;5.00;;;15.00;99.90;;;;;;5039163;28;20053;-61
2021/06/22 01:02:14;;;;;;;13.35;5.57;;;14.90;99.90;;;;;;5038821;28;20504;-61
2021/06/22 01:04:40;;;;;;;14.77;5.70;;;14.90;99.90;;;;;;5037648;28;20018;-61
2021/06/22 01:07:06;;;;;;;13.60;5.80;;;14.70;99.90;;;;;;5038897;28;20036;-61
2021/06/22 01:09:32;;;;;;;12.50;5.30;;;14.80;99.90;;;;;;5038841;28;20021;-61
2021/06/22 01:12:00;;;;;;;23.55;9.63;;;15.00;99.90;;;;;;5038899;28;20038;-60
2021/06/22 01:14:27;;;;;;;15.68;6.03;;;14.90;99.90;;;;;;5038872;28;20045;-60
2021/06/22 01:16:54;;;;;;;23.38;6.40;;;14.70;99.90;;;;;;5038505;28;20064;-61
2021/06/22 01:19:20;;;;;;;19.58;6.40;;;14.90;99.90;;;;;;5038727;28;20025;-61
2021/06/22 01:21:47;;;;;;;16.02;6.63;;;15.00;99.90;;;;;;5038535;28;20512;-61
2021/06/22 01:24:21;;;;;;;20.17;6.53;;;15.10;99.90;;;;;;5039071;28;20022;-61
2021/06/22 01:26:55;;;;;;;12.02;6.35;;;15.00;99.90;;;;;;5038383;28;20025;-61
2021/06/22 01:29:21;;;;;;;15.35;6.88;;;15.00;99.90;;;;;;5038672;28;20029;-61
2021/06/22 01:31:48;;;;;;;27.60;8.68;;;14.70;99.90;;;;;;5038186;28;20456;-61
2021/06/22 01:34:14;;;;;;;17.63;6.40;;;14.80;99.90;;;;;;5038972;28;20026;-60
2021/06/22 01:36:41;;;;;;;16.85;7.38;;;15.00;99.90;;;;;;5038660;28;20064;-60
2021/06/22 01:39:12;;;;;;;21.83;7.35;;;14.50;99.90;;;;;;5038406;28;20112;-61
2021/06/22 01:41:39;;;;;;;17.80;6.72;;;14.90;99.90;;;;;;5038176;28;20057;-61
2021/06/22 01:44:04;;;;;;;22.63;8.15;;;14.60;99.90;;;;;;5038377;28;20017;-61
2021/06/22 01:46:31;;;;;;;19.17;7.55;;;14.90;99.90;;;;;;5038048;28;20164;-60
2021/06/22 01:48:57;;;;;;;25.30;7.32;;;14.80;99.90;;;;;;5038019;28;20024;-60
2021/06/22 01:51:23;;;;;;;19.70;8.43;;;15.00;99.90;;;;;;5037981;28;20029;-61
2021/06/22 01:53:59;;;;;;;19.60;8.85;;;15.00;99.90;;;;;;5038124;28;20022;-61
2021/06/22 01:56:26;;;;;;;22.48;8.20;;;14.90;99.90;;;;;;5037937;28;20367;-60
2021/06/22 01:58:53;;;;;;;32.55;9.80;;;15.10;99.90;;;;;;5038079;28;20089;-61
2021/06/22 02:01:19;;;;;;;20.23;8.48;;;14.90;99.90;;;;;;5037695;28;20048;-61
2021/06/22 02:03:46;;;;;;;23.95;9.43;;;14.80;99.90;;;;;;5037778;28;20035;-61
2021/06/22 02:06:13;;;;;;;16.75;8.63;;;14.80;99.90;;;;;;5037857;28;20017;-61
2021/06/22 02:08:39;;;;;;;26.20;8.25;;;15.00;99.90;;;;;;5037878;28;20029;-61
2021/06/22 02:11:05;;;;;;;20.92;7.95;;;14.80;99.90;;;;;;5037804;28;20037;-61
2021/06/22 02:13:31;;;;;;;23.90;8.02;;;15.00;99.90;;;;;;5037614;28;20033;-61
2021/06/22 02:15:57;;;;;;;28.80;9.60;;;15.20;99.90;;;;;;5037526;28;20021;-60
2021/06/22 02:18:25;;;;;;;26.02;8.13;;;14.90;99.90;;;;;;5037492;28;20032;-60
2021/06/22 02:20:52;;;;;;;28.33;8.32;;;14.80;99.90;;;;;;5037530;28;20108;-60
2021/06/22 02:23:18;;;;;;;28.85;10.98;;;15.10;99.90;;;;;;5037485;28;20116;-60
2021/06/22 02:25:44;;;;;;;23.77;8.95;;;14.70;99.90;;;;;;5037374;28;20060;-61
2021/06/22 02:28:21;;;;;;;23.17;8.23;;;14.90;99.90;;;;;;5037329;28;20026;-61
2021/06/22 02:30:51;;;;;;;28.38;9.93;;;15.10;99.90;;;;;;5034944;28;20053;-60
2021/06/22 02:33:17;;;;;;;29.58;9.50;;;15.10;99.90;;;;;;5037411;28;20033;-61
2021/06/22 02:35:43;;;;;;;29.55;10.15;;;14.90;99.90;;;;;;5037848;28;20101;-61
2021/06/22 02:38:11;;;;;;;28.38;11.65;;;14.80;99.90;;;;;;5037306;28;20061;-60
2021/06/22 02:40:37;;;;;;;26.25;10.43;;;15.00;99.90;;;;;;5037058;28;20033;-61
2021/06/22 02:43:03;;;;;;;25.48;9.73;;;15.00;99.90;;;;;;5036865;28;20022;-61
2021/06/22 02:45:30;;;;;;;30.42;8.65;;;14.80;99.90;;;;;;5037245;28;20090;-61
2021/06/22 02:47:56;;;;;;;22.65;9.23;;;15.30;99.90;;;;;;5036741;28;20025;-61
2021/06/22 02:50:22;;;;;;;29.58;8.90;;;15.20;99.90;;;;;;5037129;28;20099;-61
2021/06/22 02:52:49;;;;;;;24.52;9.05;;;15.30;99.90;;;;;;5036906;28;20026;-61
2021/06/22 02:55:19;;;;;;;26.17;8.90;;;15.10;99.90;;;;;;5037309;28;20032;-61
2021/06/22 02:57:47;;;;;;;32.08;9.93;;;15.10;99.90;;;;;;5037111;28;20021;-61
2021/06/22 03:00:14;;;;;;;25.80;9.60;;;15.40;99.90;;;;;;5037234;28;20021;-60
2021/06/22 03:02:40;;;;;;;19.48;9.60;;;14.90;99.90;;;;;;5036629;28;20026;-61
2021/06/22 03:05:06;;;;;;;25.80;8.30;;;15.40;99.90;;;;;;5037025;28;20085;-61
2021/06/22 03:07:32;;;;;;;25.13;8.80;;;15.00;99.90;;;;;;5036523;28;20025;-61
2021/06/22 03:09:58;;;;;;;19.73;8.20;;;15.30;99.90;;;;;;5036469;28;20393;-61
2021/06/22 03:12:24;;;;;;;20.60;7.78;;;15.30;99.90;;;;;;5036606;28;20064;-61
2021/06/22 03:14:50;;;;;;;18.77;8.68;;;15.20;99.90;;;;;;5036693;28;20155;-61
2021/06/22 03:17:16;;;;;;;18.95;7.45;;;15.40;99.90;;;;;;5036541;28;20038;-61
2021/06/22 03:19:41;;;;;;;18.75;7.38;;;15.00;99.90;;;;;;5037058;28;20026;-60
2021/06/22 03:22:07;;;;;;;20.23;7.72;;;15.20;99.90;;;;;;5036552;28;20030;-60
2021/06/22 03:24:33;;;;;;;24.30;8.05;;;15.30;99.90;;;;;;5036759;28;20028;-61
2021/06/22 03:26:59;;;;;;;17.60;6.57;;;15.10;99.90;;;;;;5036611;28;20030;-61
2021/06/22 03:29:25;;;;;;;16.27;6.85;;;15.40;99.90;;;;;;5036650;28;20070;-61
2021/06/22 03:31:52;;;;;;;20.63;6.18;;;15.20;99.90;;;;;;5035912;28;20140;-61
2021/06/22 03:34:19;;;;;;;15.15;6.95;;;15.50;99.90;;;;;;5036706;28;20079;-61
2021/06/22 03:36:45;;;;;;;12.65;6.07;;;15.20;99.90;;;;;;5036973;28;20018;-61
2021/06/22 03:39:10;;;;;;;9.48;5.13;;;15.20;99.90;;;;;;5036617;28;20036;-61
2021/06/22 03:41:37;;;;;;;13.55;4.93;;;15.30;99.90;;;;;;5036302;28;20040;-61
2021/06/22 03:44:03;;;;;;;8.15;4.85;;;15.40;99.90;;;;;;5036463;28;20100;-61
2021/06/22 03:46:29;;;;;;;7.45;5.70;;;15.40;99.90;;;;;;5036311;28;20429;-61
2021/06/22 03:48:56;;;;;;;8.32;4.30;;;15.40;99.90;;;;;;5036197;28;20033;-61
2021/06/22 03:51:21;;;;;;;9.27;4.90;;;15.40;99.90;;;;;;5036293;28;20101;-60
2021/06/22 03:53:48;;;;;;;8.30;4.90;;;15.40;99.90;;;;;;5036345;28;20064;-61
2021/06/22 03:56:14;;;;;;;6.22;5.00;;;15.30;99.90;;;;;;5036276;28;20048;-61
2021/06/22 03:58:42;;;;;;;7.28;5.05;;;15.40;99.90;;;;;;5036336;28;20029;-61
2021/06/22 04:01:08;;;;;;;8.05;6.22;;;15.30;99.90;;;;;;5036078;28;20079;-61
2021/06/22 04:03:34;;;;;;;8.05;5.00;;;15.30;99.90;;;;;;5035915;28;20025;-61
2021/06/22 04:06:00;;;;;;;8.00;4.82;;;15.40;99.90;;;;;;5036018;28;20032;-61
2021/06/22 04:08:27;;;;;;;9.35;5.93;;;15.30;99.90;;;;;;5036209;28;20386;-61
2021/06/22 04:10:53;;;;;;;9.73;6.38;;;15.30;99.90;;;;;;5036102;28;20033;-61
2021/06/22 04:13:19;;;;;;;8.13;5.55;;;15.30;99.90;;;;;;5036248;28;20084;-61
2021/06/22 04:15:44;;;;;;;12.48;6.10;;;15.60;99.90;;;;;;5036209;28;20026;-60
2021/06/22 04:18:11;;;;;;;10.25;7.38;;;15.40;99.90;;;;;;5030127;28;20041;-61
2021/06/22 04:20:38;;;;;;;9.85;6.25;;;15.10;99.90;;;;;;5035368;28;20026;-61
2021/06/22 04:23:05;;;;;;;11.38;6.22;;;15.40;99.90;;;;;;5039187;28;20076;-61
2021/06/22 04:25:32;;;;;;;12.18;5.90;;;15.30;99.90;;;;;;5039269;28;20021;-60
2021/06/22 04:28:02;;;;;;;11.77;6.53;;;15.40;99.90;;;;;;5039789;28;20506;-60
2021/06/22 04:30:29;;;;;;;12.45;6.05;;;15.40;99.90;;;;;;5039237;28;20114;-60
2021/06/22 04:32:55;;;;;;;13.07;7.53;;;15.20;99.90;;;;;;5039135;28;20082;-61
2021/06/22 04:35:21;;;;;;;15.65;7.55;;;15.40;99.90;;;;;;5039720;28;20084;-61
2021/06/22 04:37:46;;;;;;;12.65;6.80;;;15.10;99.90;;;;;;5026761;28;20018;-61
2021/06/22 04:40:13;;;;;;;11.77;6.50;;;15.40;99.90;;;;;;5019488;28;20494;-61
2021/06/22 04:42:39;;;;;;;15.00;7.05;;;15.50;99.90;;;;;;5019153;28;20528;-61
2021/06/22 04:45:06;;;;;;;13.10;6.95;;;15.40;99.90;;;;;;5019139;28;20033;-60
2021/06/22 04:47:32;;;;;;;13.27;7.80;;;15.40;99.90;;;;;;5019241;28;20037;-60
2021/06/22 04:49:58;;;;;;;12.32;7.80;;;15.30;99.90;;;;;;5019435;28;20014;-61
2021/06/22 04:52:24;;;;;;;15.35;7.40;;;15.40;99.90;;;;;;5019555;28;20025;-61
2021/06/22 04:54:52;;;;;;;17.75;7.63;;;15.10;99.90;;;;;;5019343;28;20022;-61
2021/06/22 04:57:20;;;;;;;12.10;6.55;;;15.40;99.90;;;;;;5019194;28;20026;-61
2021/06/22 04:59:46;;;;;;;13.98;8.13;;;15.50;99.90;;;;;;5019270;28;20512;-61
2021/06/22 05:02:13;;;;;;;12.90;7.43;;;15.40;99.90;;;;;;5019159;28;20049;-60
2021/06/22 05:04:39;;;;;;;14.35;8.02;;;15.60;99.90;;;;;;5019170;28;20025;-60
2021/06/22 05:07:05;;;;;;;17.75;8.50;;;15.40;99.90;;;;;;5019380;28;20113;-61
2021/06/22 05:09:31;;;;;;;20.63;8.55;;;15.50;99.90;;;;;;5019041;28;20046;-61
2021/06/22 05:11:57;;;;;;;13.93;7.05;;;15.20;99.90;;;;;;5019284;28;20390;-60
2021/06/22 05:14:23;;;;;;;15.52;7.28;;;15.50;99.90;;;;;;5024701;28;20049;-61
2021/06/22 05:16:49;;;;;;;20.70;8.32;;;15.50;99.90;;;;;;5038567;28;20021;-61
2021/06/22 05:19:16;;;;;;;16.02;7.70;;;15.40;99.90;;;;;;5038966;28;20099;-61
2021/06/22 05:21:42;;;;;;;16.02;7.75;;;15.50;99.90;;;;;;5038897;28;20037;-60
2021/06/22 05:24:09;;;;;;;17.38;7.97;;;15.40;99.90;;;;;;5038594;28;20053;-61
2021/06/22 05:26:35;;;;;;;15.07;7.03;;;15.50;99.90;;;;;;5038750;28;20021;-61
2021/06/22 05:29:01;;;;;;;15.18;7.55;;;15.30;99.90;;;;;;5038353;28;20009;-61
2021/06/22 05:31:27;;;;;;;13.55;6.97;;;15.50;99.90;;;;;;5038032;28;20051;-61
2021/06/22 05:33:53;;;;;;;17.30;6.85;;;15.40;99.90;;;;;;5038237;28;20056;-61
2021/06/22 05:36:18;;;;;;;11.70;6.20;;;15.30;99.90;;;;;;5038883;28;20026;-61
2021/06/22 05:38:45;;;;;;;13.13;6.25;;;15.30;99.90;;;;;;5038572;28;20100;-61
2021/06/22 05:41:11;;;;;;;12.43;5.57;;;15.40;99.90;;;;;;5038870;28;20036;-61
2021/06/22 05:43:37;;;;;;;8.55;5.10;;;15.40;99.90;;;;;;5038348;28;20057;-61
2021/06/22 05:46:03;;;;;;;6.88;3.70;;;15.30;99.90;;;;;;5038176;28;20033;-60
2021/06/22 05:48:29;;;;;;;4.63;3.70;;;15.20;99.90;;;;;;5038049;28;20497;-61
2021/06/22 05:50:54;;;;;;;8.15;3.92;;;15.30;99.90;;;;;;5038274;28;20117;-61
2021/06/22 05:53:20;;;;;;;8.95;3.53;;;15.10;99.90;;;;;;5038025;28;20055;-60
2021/06/22 05:55:46;;;;;;;7.20;3.67;;;15.10;99.90;;;;;;5038252;28;20037;-61
2021/06/22 05:58:12;;;;;;;7.35;4.20;;;15.70;99.90;;;;;;5037991;28;20025;-60
2021/06/22 06:00:38;;;;;;;10.43;4.32;;;15.30;99.90;;;;;;5038152;28;20103;-61
2021/06/22 06:03:04;;;;;;;7.63;3.72;;;14.90;99.90;;;;;;5037605;28;20033;-60
2021/06/22 06:05:30;;;;;;;5.85;3.38;;;15.30;99.90;;;;;;5038081;28;20430;-60
2021/06/22 06:07:56;;;;;;;5.40;3.47;;;14.90;99.90;;;;;;5037691;28;20022;-60
2021/06/22 06:10:23;;;;;;;5.38;3.38;;;15.10;99.90;;;;;;5037922;28;20033;-61
2021/06/22 06:12:48;;;;;;;4.80;3.53;;;15.00;99.90;;;;;;5037770;28;20040;-61
2021/06/22 06:15:15;;;;;;;5.85;3.42;;;15.10;99.90;;;;;;5038086;28;20116;-61
2021/06/22 06:17:41;;;;;;;9.88;3.17;;;14.80;99.90;;;;;;5037405;28;20033;-60
2021/06/22 06:20:11;;;;;;;7.57;4.18;;;15.20;99.90;;;;;;5037721;28;20102;-61
2021/06/22 06:22:38;;;;;;;10.52;3.85;;;15.00;99.90;;;;;;5017883;28;20030;-60
2021/06/22 06:25:05;;;;;;;4.10;3.50;;;14.90;99.90;;;;;;5017824;28;20493;-61
2021/06/22 06:30:13;;;;;;;9.15;4.93;;;15.20;99.90;;;;;;5029060;28;20034;-60
2021/06/22 06:32:39;;;;;;;7.93;5.15;;;14.80;99.90;;;;;;5037158;28;20026;-60
2021/06/22 06:35:06;;;;;;;7.88;3.95;;;14.80;99.90;;;;;;5037532;28;20044;-61
2021/06/22 06:37:32;;;;;;;8.10;4.30;;;14.90;99.90;;;;;;5037249;28;20033;-60
2021/06/22 06:39:58;;;;;;;7.82;3.65;;;14.80;99.90;;;;;;5037144;28;20397;-61
2021/06/22 06:42:24;;;;;;;4.60;3.42;;;15.10;99.90;;;;;;5037027;28;20108;-60
2021/06/22 06:44:51;;;;;;;6.95;3.60;;;14.70;99.90;;;;;;5036573;28;20021;-60
2021/06/22 06:47:16;;;;;;;7.63;4.13;;;15.00;99.90;;;;;;5037103;28;20030;-60
2021/06/22 06:49:42;;;;;;;5.32;3.92;;;14.80;99.90;;;;;;5037074;28;20048;-60
2021/06/22 06:52:08;;;;;;;6.75;3.80;;;14.80;99.90;;;;;;5037144;28;20038;-60
2021/06/22 06:54:34;;;;;;;7.60;3.85;;;15.00;99.90;;;;;;5036847;28;20092;-60
2021/06/22 06:57:00;;;;;;;8.90;3.88;;;14.90;99.90;;;;;;5036931;28;20029;-60
2021/06/22 06:59:26;;;;;;;8.18;3.90;;;14.90;99.90;;;;;;5036906;28;20112;-61
2021/06/22 07:01:52;;;;;;;7.13;3.85;;;14.70;99.90;;;;;;5036548;28;20033;-61
2021/06/22 07:04:17;;;;;;;8.88;4.22;;;14.50;99.90;;;;;;5036952;28;20027;-61
2021/06/22 07:06:43;;;;;;;6.03;3.65;;;14.90;99.90;;;;;;5037039;28;20030;-61
2021/06/22 07:09:09;;;;;;;10.68;4.50;;;14.90;99.90;;;;;;5036643;28;20021;-61
2021/06/22 07:11:36;;;;;;;5.88;4.15;;;14.80;99.90;;;;;;5036734;28;20041;-60
2021/06/22 07:14:03;;;;;;;7.50;4.20;;;14.70;99.90;;;;;;5036769;28;20037;-60
2021/06/22 07:16:29;;;;;;;7.72;4.10;;;14.70;99.90;;;;;;5036568;28;20478;-60
2021/06/22 07:18:54;;;;;;;12.13;4.50;;;15.20;99.90;;;;;;5036279;28;20055;-60
2021/06/22 07:21:21;;;;;;;10.15;3.58;;;14.80;99.90;;;;;;5036726;28;20496;-60
2021/06/22 07:23:47;;;;;;;6.35;4.55;;;14.80;99.90;;;;;;5036715;28;20091;-60
2021/06/22 07:26:13;;;;;;;10.10;3.72;;;14.70;99.90;;;;;;5036796;28;20034;-61
2021/06/22 07:28:39;;;;;;;9.85;3.33;;;14.60;99.90;;;;;;5036263;28;20010;-60
2021/06/22 07:31:07;;;;;;;7.20;4.47;;;15.10;99.90;;;;;;5036432;28;20413;-60
2021/06/22 07:33:33;;;;;;;6.97;3.50;;;14.90;99.90;;;;;;5036220;28;20025;-60
2021/06/22 07:36:00;;;;;;;5.68;3.53;;;14.80;99.90;;;;;;5036794;28;20044;-60
2021/06/22 07:38:26;;;;;;;7.28;3.03;;;14.90;99.90;;;;;;5036411;28;20022;-60
2021/06/22 07:40:52;;;;;;;6.20;3.15;;;15.10;99.90;;;;;;5036534;28;20029;-61
2021/06/22 07:43:18;;;;;;;5.40;3.20;;;15.00;99.90;;;;;;5036410;28;20021;-60
2021/06/22 07:45:44;;;;;;;10.05;3.45;;;14.90;99.90;;;;;;5036627;28;20029;-60
2021/06/22 07:48:11;;;;;;;5.00;3.22;;;15.10;99.90;;;;;;5036045;28;20033;-60
2021/06/22 07:50:37;;;;;;;7.95;3.25;;;15.20;99.90;;;;;;5036649;28;20309;-61
2021/06/22 07:53:04;;;;;;;5.28;2.83;;;15.30;99.90;;;;;;5036302;28;20028;-60
2021/06/22 07:55:30;;;;;;;5.28;2.70;;;15.40;99.90;;;;;;5039231;28;20029;-61
2021/06/22 07:57:57;;;;;;;5.45;2.47;;;15.20;99.90;;;;;;5040303;28;20033;-61
2021/06/22 08:03:09;;;;;;;3.13;2.20;;;15.20;99.90;;;;;;5039964;28;20464;-61
2021/06/22 08:05:35;;;;;;;5.00;2.83;;;15.20;99.90;;;;;;5040340;28;20029;-61
2021/06/22 08:08:01;;;;;;;3.70;2.10;;;15.20;99.90;;;;;;5040058;28;20029;-61
2021/06/22 08:10:27;;;;;;;5.03;2.38;;;15.10;99.90;;;;;;5040222;28;20064;-60
2021/06/22 08:12:53;;;;;;;2.75;1.85;;;15.30;99.90;;;;;;5039926;28;20392;-61
2021/06/22 08:15:19;;;;;;;4.93;2.00;;;15.10;99.90;;;;;;5039839;28;20017;-61
2021/06/22 08:17:45;;;;;;;3.22;2.05;;;15.10;99.90;;;;;;5040101;28;20105;-61
2021/06/22 08:20:12;;;;;;;3.65;2.10;;;15.10;99.90;;;;;;5040003;28;20053;-60
2021/06/22 08:22:38;;;;;;;3.60;2.40;;;15.20;99.90;;;;;;5040004;28;20087;-60
2021/06/22 08:25:07;;;;;;;3.58;2.30;;;15.00;99.90;;;;;;5039787;28;20045;-61
2021/06/22 08:27:33;;;;;;;5.47;2.15;;;15.20;99.90;;;;;;5039615;28;20024;-61
2021/06/22 08:29:59;;;;;;;4.88;2.65;;;15.20;99.90;;;;;;5039438;28;20493;-61
2021/06/22 08:32:24;;;;;;;4.32;2.63;;;15.30;99.90;;;;;;5039444;28;20030;-61
2021/06/22 08:34:50;;;;;;;2.65;1.70;;;15.30;99.90;;;;;;5039564;28;20029;-61
2021/06/22 08:37:16;;;;;;;5.65;2.03;;;15.30;99.90;;;;;;5051367;28;20481;-61
2021/06/22 08:39:42;;;;;;;2.55;1.70;;;15.00;99.90;;;;;;5039826;28;20093;-61
2021/06/22 08:42:10;;;;;;;1.67;1.58;;;15.10;99.90;;;;;;5039389;28;20520;-61
2021/06/22 08:44:38;;;;;;;3.58;1.80;;;15.40;99.90;;;;;;5039336;28;20116;-61
2021/06/22 08:47:04;;;;;;;1.65;1.55;;;15.10;99.90;;;;;;5039185;28;20022;-61
2021/06/22 08:49:33;;;;;;;2.50;1.83;;;15.30;99.90;;;;;;5039322;28;20049;-61
2021/06/22 08:52:00;;;;;;;1.95;1.73;;;15.20;99.90;;;;;;5039402;28;20017;-61
2021/06/22 08:54:27;;;;;;;2.63;1.60;;;15.40;99.90;;;;;;5039133;28;20044;-61
2021/06/22 08:56:55;;;;;;;1.70;1.42;;;15.40;99.90;;;;;;5039123;28;20532;-61
2021/06/22 08:59:21;;;;;;;1.85;1.20;;;15.60;99.90;;;;;;5039049;28;20037;-61
2021/06/22 09:01:47;;;;;;;1.30;1.20;;;15.50;99.90;;;;;;5039025;28;20025;-61
2021/06/22 09:04:12;;;;;;;1.75;1.20;;;15.70;99.90;;;;;;5039149;28;20029;-61
2021/06/22 09:06:43;;;;;;;1.92;1.45;;;15.90;99.90;;;;;;5038290;28;20062;-61
2021/06/22 09:09:09;;;;;;;1.30;1.20;;;16.10;99.90;;;;;;5039011;28;20436;-61
2021/06/22 09:11:36;;;;;;;2.58;1.17;;;16.00;99.90;;;;;;5039017;28;20021;-61
2021/06/22 09:14:04;;;;;;;1.70;1.23;;;16.30;99.90;;;;;;5038672;28;20026;-61
2021/06/22 09:16:31;;;;;;;1.30;1.20;;;16.30;99.90;;;;;;5038622;28;20029;-61
2021/06/22 09:19:06;;;;;;;2.70;1.00;;;16.20;99.90;;;;;;5038703;28;20112;-61
2021/06/22 09:21:41;;;;;;;1.30;1.20;;;16.30;99.90;;;;;;5038748;28;20075;-60
2021/06/22 09:24:15;;;;;;;1.92;1.00;;;16.10;99.90;;;;;;5038819;28;20083;-61
2021/06/22 09:26:44;;;;;;;1.30;1.13;;;16.20;99.90;;;;;;5039023;28;20057;-61
2021/06/22 09:29:13;;;;;;;1.27;1.20;;;16.30;99.90;;;;;;5038712;28;20040;-61
2021/06/22 09:31:50;;;;;;;1.10;1.00;;;16.30;99.90;;;;;;5037886;28;20046;-61
2021/06/22 09:34:18;;;;;;;1.42;1.20;;;16.10;99.90;;;;;;5038883;28;20513;-60
2021/06/22 09:36:51;;;;;;;1.30;1.20;;;16.20;99.90;;;;;;5039037;28;20017;-61
2021/06/22 09:39:17;;;;;;;1.42;1.10;;;16.00;99.90;;;;;;5038558;28;20049;-61
2021/06/22 09:41:43;;;;;;;2.00;1.27;;;15.90;99.90;;;;;;5038392;28;20409;-61
2021/06/22 09:44:11;;;;;;;3.25;0.90;;;15.90;99.90;;;;;;5038344;28;20020;-61
2021/06/22 09:46:46;;;;;;;1.55;1.20;;;15.70;99.90;;;;;;5037986;28;20057;-61
2021/06/22 09:49:23;;;;;;;1.00;1.00;;;15.90;99.90;;;;;;5038915;28;20018;-61
2021/06/22 09:51:55;;;;;;;1.88;1.10;;;15.80;99.90;;;;;;5038435;28;20033;-61
2021/06/22 09:54:26;;;;;;;2.10;1.35;;;16.10;99.90;;;;;;5038159;28;20021;-60
2021/06/22 09:57:06;;;;;;;2.53;1.00;;;16.10;99.90;;;;;;5037930;28;20029;-61
2021/06/22 09:59:50;;;;;;;1.42;1.30;;;16.10;99.90;;;;;;5037961;28;20030;-61
2021/06/22 10:02:20;;;;;;;2.05;1.20;;;16.00;99.90;;;;;;5038027;28;20094;-61
2021/06/22 10:04:47;;;;;;;1.75;1.08;;;16.10;99.90;;;;;;5038402;28;20481;-61
2021/06/22 10:07:15;;;;;;;1.05;0.88;;;16.10;99.90;;;;;;5038073;28;20014;-61
2021/06/22 10:09:42;;;;;;;1.48;1.00;;;16.20;99.90;;;;;;5037968;28;20022;-61
2021/06/22 10:12:15;;;;;;;2.45;1.00;;;16.10;99.90;;;;;;5037739;28;20029;-61
2021/06/22 10:14:52;;;;;;;1.15;1.00;;;15.80;99.90;;;;;;5037960;28;20122;-61
2021/06/22 10:17:21;;;;;;;4.22;1.20;;;16.00;99.90;;;;;;5036990;28;20102;-61
2021/06/22 10:19:51;;;;;;;3.30;1.20;;;16.10;99.90;;;;;;5037349;28;20039;-61
2021/06/22 10:22:21;;;;;;;1.48;1.20;;;16.00;99.90;;;;;;5037476;28;20392;-61
2021/06/22 10:24:47;;;;;;;2.75;1.40;;;15.90;99.90;;;;;;5037695;28;20375;-61
2021/06/22 10:27:19;;;;;;;3.03;1.20;;;16.10;99.90;;;;;;5037502;28;20105;-61
2021/06/22 10:29:53;;;;;;;3.22;1.48;;;15.80;99.90;;;;;;5037716;28;20458;-61
2021/06/22 10:32:21;;;;;;;5.82;1.38;;;16.10;99.90;;;;;;5037086;28;20111;-61
2021/06/22 10:34:59;;;;;;;2.47;1.25;;;15.90;99.90;;;;;;5037616;28;20021;-61
2021/06/22 10:37:36;;;;;;;1.35;1.25;;;15.80;99.90;;;;;;5017701;28;20053;-61
2021/06/22 10:40:26;;;;;;;5.40;1.50;;;16.00;99.90;;;;;;5017662;28;20053;-60
2021/06/22 10:42:53;;;;;;;3.10;1.70;;;16.00;99.90;;;;;;5017312;28;20502;-60
2021/06/22 10:45:20;;;;;;;1.48;1.25;;;16.10;99.90;;;;;;5017714;28;20040;-60
2021/06/22 10:47:48;;;;;;;4.70;1.67;;;16.00;99.90;;;;;;5017343;28;20057;-61
2021/06/22 10:50:23;;;;;;;1.85;1.40;;;16.00;99.90;;;;;;5017676;28;20018;-60
2021/06/22 10:52:57;;;;;;;1.95;1.48;;;16.10;99.90;;;;;;5017459;28;20036;-61
2021/06/22 10:55:31;;;;;;;1.80;1.58;;;16.00;99.90;;;;;;5017201;28;20426;-61
2021/06/22 10:58:00;;;;;;;5.13;1.70;;;16.20;99.90;;;;;;5017267;28;20033;-61
2021/06/22 11:00:49;;;;;;;2.85;1.58;;;16.50;99.90;;;;;;5017414;28;20033;-60
2021/06/22 11:03:23;;;;;;;5.60;1.70;;;16.40;99.90;;;;;;5024696;28;20052;-61
2021/06/22 11:06:05;;;;;;;4.20;1.73;;;16.60;99.90;;;;;;5036826;28;20017;-61
2021/06/22 11:08:37;;;;;;;1.80;1.70;;;16.50;99.90;;;;;;5036835;28;20500;-60
2021/06/22 11:11:06;;;;;;;1.77;1.20;;;16.40;99.90;;;;;;5036628;28;20029;-61
2021/06/22 11:13:46;;;;;;;3.20;1.65;;;16.00;99.90;;;;;;5036886;28;20108;-61
2021/06/22 11:16:18;;;;;;;2.40;1.58;;;16.10;99.90;;;;;;5024608;28;20029;-60
2021/06/22 11:18:53;;;;;;;1.65;1.48;;;16.00;99.90;;;;;;5036990;28;20034;-61
2021/06/22 11:21:26;;;;;;;3.00;1.80;;;16.10;99.90;;;;;;5036829;28;20064;-60
2021/06/22 11:24:12;;;;;;;2.65;1.77;;;16.00;99.90;;;;;;5036600;28;20256;-60
2021/06/22 11:26:41;;;;;;;6.35;1.73;;;16.00;99.90;;;;;;5036643;28;20497;-61
2021/06/22 11:29:08;;;;;;;2.28;1.85;;;16.10;99.90;;;;;;5020372;28;20049;-60
2021/06/22 11:31:40;;;;;;;4.65;1.88;;;16.10;99.90;;;;;;5036005;28;20124;-61
2021/06/22 11:34:17;;;;;;;1.75;1.65;;;16.30;99.90;;;;;;5036721;28;20033;-61
2021/06/22 11:36:53;;;;;;;2.08;1.70;;;16.40;99.90;;;;;;5037043;28;20029;-60
2021/06/22 11:39:23;;;;;;;5.47;2.65;;;16.50;99.90;;;;;;5036418;28;20045;-61
2021/06/22 11:42:14;;;;;;;3.10;2.28;;;16.60;99.90;;;;;;5036154;28;20030;-61
2021/06/22 11:44:45;;;;;;;5.30;2.35;;;16.80;99.90;;;;;;5036493;28;20029;-61
2021/06/22 11:47:14;;;;;;;6.72;2.30;;;16.70;99.90;;;;;;5036295;28;20022;-60
2021/06/22 11:49:49;;;;;;;2.88;1.75;;;17.00;99.90;;;;;;5036351;28;20047;-61
2021/06/22 11:52:16;;;;;;;5.18;1.80;;;;;;;;;;5036735;28;20033;-61
2021/06/22 11:54:48;;;;;;;3.20;2.08;;;17.30;99.90;;;;;;5036245;28;20033;-61
2021/06/22 11:57:17;;;;;;;2.03;1.70;;;17.40;99.90;;;;;;5036561;28;20033;-61
2021/06/22 11:59:43;;;;;;;5.63;2.28;;;17.50;99.90;;;;;;5036373;28;20026;-61
2021/06/22 12:02:09;;;;;;;4.55;2.13;;;17.30;99.90;;;;;;5036066;28;20025;-61
2021/06/22 12:04:35;;;;;;;4.13;1.83;;;17.50;99.90;;;;;;5036361;28;20117;-61
2021/06/22 12:07:02;;;;;;;6.03;1.92;;;17.40;99.90;;;;;;5036265;28;20037;-61
2021/06/22 12:09:28;;;;;;;1.77;1.60;;;17.10;99.90;;;;;;5036279;28;20049;-61
2021/06/22 12:11:57;;;;;;;2.72;1.58;;;16.90;99.90;;;;;;5036314;28;20033;-61
2021/06/22 12:14:23;;;;;;;2.15;1.95;;;17.50;99.90;;;;;;5036144;28;20041;-60
2021/06/22 12:16:49;;;;;;;2.17;1.77;;;17.50;99.90;;;;;;5036053;28;20076;-61
2021/06/22 12:19:20;;;;;;;5.10;1.92;;;;;;;;;;5036066;28;20089;-61
2021/06/22 12:21:53;;;;;;;3.55;2.10;;;;;;;;;;5036418;28;20056;-61
2021/06/22 12:24:20;;;;;;;2.47;2.28;;;;;;;;;;5016466;28;20029;-60
2021/06/22 12:26:49;;;;;;;6.28;1.95;;;;;;;;;;5016298;28;20044;-61
2021/06/22 12:29:30;;;;;;;4.65;1.85;;;;;;;;;;5021583;28;20104;-61
2021/06/22 12:32:05;;;;;;;3.22;2.17;;;;;;;;;;5035365;28;20386;-60
2021/06/22 12:34:32;;;;;;;5.28;2.25;;;;;;;;;;5036261;28;20033;-61
2021/06/22 12:36:59;;;;;;;3.30;2.05;;;;;;;;;;5049314;28;20440;-60
2021/06/22 12:39:26;;;;;;;6.10;2.28;;;;;;;;;;5035978;28;20029;-60
2021/06/22 12:42:01;;;;;;;2.80;2.10;;;;;;;;;;5037127;28;20029;-61
2021/06/22 12:44:28;;;;;;;3.70;2.30;;;;;;;;;;5039614;28;20025;-60
2021/06/22 12:46:54;;;;;;;8.93;2.00;;;;;;;;;;5039077;28;20482;-60
2021/06/22 12:49:27;;;;;;;2.63;1.80;;;;;;;;;;5039621;28;20057;-61
2021/06/22 12:51:57;;;;;;;2.65;2.10;;;;;;;;;;5039603;28;20029;-61
2021/06/22 12:54:26;;;;;;;5.00;2.00;;;;;;;;;;5039382;28;20033;-60
2021/06/22 12:56:53;;;;;;;6.63;2.35;;;;;;;;;;5039077;28;20029;-60